Time;durP1;ratioP1;P1;durP2;ratioP2;P2;SDS_P1;SDS_P2;PMS_P1;PMS_P2;Temp;Humidity;BMP_temperature;BMP_pressure;BME280_temperature;BME280_humidity;BME280_pressure;Samples;Min_cycle;Max_cycle;Signal;HPM_P1;HPM_P2
2021/03/25 05:46:22;;;;;;;9.88;6.07;;;;;;;;;;6212529;22;884216;-81
2021/03/25 05:48:57;;;;;;;9.10;5.63;;;;;;;;;;6307663;22;20383;-81
2021/03/25 05:51:38;;;;;;;11.07;5.55;;;;;;;;;;6281408;22;20094;-81
2021/03/25 05:54:12;;;;;;;9.45;5.70;;;;;;;;;;6309505;22;20427;-81
2021/03/25 05:56:40;;;;;;;9.43;4.93;;;;;;;;;;6289708;22;20050;-81
2021/03/25 05:59:10;;;;;;;9.48;5.53;;;;;;;;;;6250090;22;20003;-81
2021/03/25 06:02:00;;;;;;;9.80;5.15;;;;;;;;;;6308802;22;20007;-82
2021/03/25 06:04:33;;;;;;;7.97;4.95;;;;;;;;;;6310829;22;19999;-82
2021/03/25 06:07:15;;;;;;;10.15;6.00;;;;;;;;;;6338598;22;19999;-81
2021/03/25 06:09:59;;;;;;;7.18;4.75;;;;;;;;;;6339050;22;20310;-82
2021/03/25 06:12:25;;;;;;;10.27;5.55;;;;;;;;;;6283917;22;20007;-82
2021/03/25 06:14:57;;;;;;;10.20;5.68;;;;;;;;;;6307124;22;20322;-81
2021/03/25 06:17:29;;;;;;;10.15;5.93;;;;;;;;;;6308304;22;19999;-81
2021/03/25 06:20:01;;;;;;;10.43;5.63;;;;;;;;;;6309228;22;20003;-81
2021/03/25 06:22:30;;;;;;;9.60;5.72;;;;;;;;;;6281512;22;20333;-81
2021/03/25 06:25:14;;;;;;;12.40;6.00;;;;;;;;;;6309427;22;20368;-82
2021/03/25 06:27:59;;;;;;;10.55;5.30;;;;;;;;;;6309475;22;20003;-81
2021/03/25 06:30:28;;;;;;;9.93;5.47;;;;;;;;;;6309508;22;19995;-81
2021/03/25 06:33:02;;;;;;;10.55;5.03;;;;;;;;;;6309991;22;20007;-81
2021/03/25 06:35:43;;;;;;;13.13;6.95;;;;;;;;;;6309227;22;20007;-81
2021/03/25 06:38:15;;;;;;;9.48;5.55;;;;;;;;;;6282228;22;20013;-80
2021/03/25 06:40:42;;;;;;;9.70;5.82;;;;;;;;;;6308148;22;20007;-82
2021/03/25 06:43:12;;;;;;;9.57;5.45;;;;;;;;;;6310007;22;19995;-82
2021/03/25 06:45:56;;;;;;;9.80;5.75;;;;;;;;;;6306753;22;20060;-80
2021/03/25 06:48:42;;;;;;;11.60;6.57;;;;;;;;;;6309757;22;20414;-82
2021/03/25 06:51:28;;;;;;;10.32;6.38;;;;;;;;;;6288900;22;20456;-82
2021/03/25 06:54:11;;;;;;;8.75;5.60;;;;;;;;;;6281937;22;20397;-82
2021/03/25 06:56:39;;;;;;;10.35;6.00;;;;;;;;;;6309866;22;19999;-82
2021/03/25 06:59:08;;;;;;;11.40;6.05;;;;;;;;;;6310581;22;20451;-81
2021/03/25 07:01:36;;;;;;;9.77;6.45;;;;;;;;;;6309547;22;20120;-82
2021/03/25 07:04:05;;;;;;;12.73;7.20;;;;;;;;;;6317226;22;19979;-79
2021/03/25 07:06:32;;;;;;;9.82;6.72;;;;;;;;;;6301206;22;20007;-81
2021/03/25 07:08:58;;;;;;;11.52;5.97;;;;;;;;;;6332847;22;20003;-80
2021/03/25 07:11:27;;;;;;;11.73;7.35;;;;;;;;;;6330019;22;20025;-81
2021/03/25 07:14:03;;;;;;;10.88;8.25;;;;;;;;;;6330797;22;19996;-81
2021/03/25 07:16:30;;;;;;;12.55;6.38;;;;;;;;;;6325189;22;20007;-80
2021/03/25 07:19:12;;;;;;;13.77;6.28;;;;;;;;;;6324600;22;20003;-81
2021/03/25 07:21:51;;;;;;;13.07;7.85;;;;;;;;;;6296858;22;20405;-81
2021/03/25 07:24:23;;;;;;;13.00;7.82;;;;;;;;;;6322738;22;19995;-81
2021/03/25 07:26:54;;;;;;;12.70;7.55;;;;;;;;;;6323156;22;20003;-80
2021/03/25 07:29:22;;;;;;;16.10;8.30;;;;;;;;;;6333909;22;19994;-80
2021/03/25 07:31:56;;;;;;;17.38;8.95;;;;;;;;;;6305429;22;20007;-80
2021/03/25 07:34:26;;;;;;;14.80;8.70;;;;;;;;;;6329726;22;20011;-79
2021/03/25 07:36:53;;;;;;;16.50;9.05;;;;;;;;;;6317754;22;20029;-81
2021/03/25 07:39:22;;;;;;;17.20;9.13;;;;;;;;;;6322641;22;19999;-82
2021/03/25 07:41:48;;;;;;;14.00;8.45;;;;;;;;;;6293367;22;20030;-81
2021/03/25 07:44:28;;;;;;;22.40;10.65;;;;;;;;;;6319060;22;19995;-82
2021/03/25 07:47:24;;;;;;;18.15;10.05;;;;;;;;;;6291952;22;20003;-81
2021/03/25 07:49:50;;;;;;;14.23;9.52;;;;;;;;;;6318848;22;20003;-82
2021/03/25 07:52:33;;;;;;;15.77;9.50;;;;;;;;;;6319325;22;19999;-82
2021/03/25 07:55:13;;;;;;;16.17;9.38;;;;;;;;;;6318622;22;19999;-82
2021/03/25 07:57:40;;;;;;;15.20;9.45;;;;;;;;;;6317761;22;20310;-82
2021/03/25 08:00:15;;;;;;;16.23;8.90;;;;;;;;;;6319553;22;19995;-83
2021/03/25 08:02:41;;;;;;;19.60;10.15;;;;;;;;;;6317104;22;20341;-82
2021/03/25 08:05:19;;;;;;;18.27;10.50;;;;;;;;;;6317695;22;19995;-82
2021/03/25 08:07:45;;;;;;;15.35;9.02;;;;;;;;;;6288455;22;20011;-81
2021/03/25 08:10:22;;;;;;;15.07;8.80;;;;;;;;;;6288450;22;20491;-82
2021/03/25 08:12:48;;;;;;;17.42;9.65;;;;;;;;;;6316224;22;20023;-83
2021/03/25 08:15:17;;;;;;;146.65;62.15;;;;;;;;;;6314458;22;20006;-82
2021/03/25 08:17:45;;;;;;;54.92;26.90;;;;;;;;;;6315109;22;20030;-82
2021/03/25 08:20:25;;;;;;;20.70;12.02;;;;;;;;;;6286850;22;20006;-83
2021/03/25 08:23:09;;;;;;;23.15;13.02;;;;;;;;;;6315470;22;19995;-82
2021/03/25 08:25:38;;;;;;;18.80;10.68;;;;;;;;;;6314760;22;20007;-80
2021/03/25 08:28:13;;;;;;;17.20;9.85;;;;;;;;;;6309679;22;20063;-81
2021/03/25 08:30:38;;;;;;;16.88;10.02;;;;;;;;;;6284441;22;20007;-80
2021/03/25 08:33:17;;;;;;;15.70;9.65;;;;;;;;;;6311778;22;20056;-81
2021/03/25 08:35:55;;;;;;;20.50;12.63;;;;;;;;;;6283282;22;20013;-80
2021/03/25 08:38:20;;;;;;;16.95;9.75;;;;;;;;;;6311923;22;20059;-80
2021/03/25 08:41:12;;;;;;;14.07;8.57;;;;;;;;;;6311644;22;19995;-80
2021/03/25 08:43:38;;;;;;;13.25;7.43;;;;;;;;;;6264560;22;20003;-80
2021/03/25 08:46:26;;;;;;;13.45;7.25;;;;;;;;;;6281651;22;20073;-80
2021/03/25 08:48:55;;;;;;;13.00;7.80;;;;;;;;;;6309417;22;20014;-80
2021/03/25 08:51:26;;;;;;;12.57;7.13;;;;;;;;;;6310759;22;20064;-80
2021/03/25 08:53:57;;;;;;;13.45;6.35;;;;;;;;;;6282810;22;20018;-80
2021/03/25 08:56:29;;;;;;;13.13;8.20;;;;;;;;;;6281807;22;20302;-80
2021/03/25 08:58:57;;;;;;;12.73;7.32;;;;;;;;;;6310040;22;20061;-81
2021/03/25 09:01:31;;;;;;;10.75;6.32;;;;;;;;;;6309064;22;20003;-80
2021/03/25 09:06:16;;;;;;;20.65;9.35;;;;;;;;;;5073571;27;20380;-81
2021/03/25 09:08:43;;;;;;;12.95;7.30;;;;;;;;;;5070597;28;20525;-81
2021/03/25 09:11:17;;;;;;;9.95;6.22;;;;;;;;;;5069798;28;20033;-81
2021/03/25 09:13:47;;;;;;;12.70;7.38;;;;;;;;;;5068186;28;20078;-82
2021/03/25 09:16:23;;;;;;;14.75;8.13;;;;;;;;;;5063762;28;20033;-81
2021/03/25 09:18:50;;;;;;;15.27;7.28;;;;;;;;;;5067496;28;20025;-82
2021/03/25 09:21:18;;;;;;;16.55;8.48;;;;;;;;;;5070538;28;20477;-81
2021/03/25 09:24:02;;;;;;;16.70;8.45;;;;;;;;;;5068345;28;20039;-84
2021/03/25 09:26:28;;;;;;;16.10;7.53;;;;;;;;;;5054287;28;20029;-85
2021/03/25 09:33:42;;;;;;;18.08;10.38;;;;;;;;;;5119129;27;20830;-84
2021/03/25 09:36:17;;;;;;;18.50;9.48;;;;;;;;;;5106778;28;20032;-83
2021/03/25 09:38:43;;;;;;;18.33;9.43;;;;;;;;;;5096857;28;20054;-84
2021/03/25 09:41:16;;;;;;;18.40;9.23;;;;;;;;;;5098862;28;20064;-83
2021/03/25 09:43:43;;;;;;;18.08;9.45;;;;;;;;;;5096071;28;20483;-84
2021/03/25 09:46:25;;;;;;;17.00;9.65;;;;;;;;;;5099741;28;20065;-84
2021/03/25 09:48:50;;;;;;;17.25;8.93;;;;;;;;;;5097892;28;20027;-85
2021/03/25 09:51:21;;;;;;;19.30;9.55;;;;;;;;;;5102384;28;20055;-85
2021/03/25 09:53:48;;;;;;;19.13;9.77;;;;;;;;;;5115823;28;20500;-84
2021/03/25 09:56:29;;;;;;;23.20;10.75;;;;;;;;;;5108859;28;20653;-85
2021/03/25 09:58:55;;;;;;;20.97;10.63;;;;;;;;;;5105648;28;20022;-85
2021/03/25 10:01:39;;;;;;;22.83;12.57;;;;;;;;;;5106847;27;20311;-85
2021/03/25 10:04:24;;;;;;;28.63;14.43;;;;;;;;;;5106451;28;20032;-85
2021/03/25 10:06:56;;;;;;;27.05;14.45;;;;;;;;;;5103849;28;20022;-84
2021/03/25 10:09:40;;;;;;;28.33;14.63;;;;;;;;;;5097909;28;20499;-85
2021/03/25 10:12:10;;;;;;;27.67;14.75;;;;;;;;;;5097328;28;20115;-85
2021/03/25 10:14:43;;;;;;;26.88;14.13;;;;;;;;;;5098255;28;20115;-85
2021/03/25 10:19:43;;;;;;;28.73;14.60;;;;;;;;;;5101436;27;20412;-85
2021/03/25 10:22:17;;;;;;;29.42;15.65;;;;;;;;;;5101157;28;20028;-86
2021/03/25 10:24:51;;;;;;;30.65;16.30;;;;;;;;;;5086973;28;20044;-85
2021/03/25 10:27:19;;;;;;;31.13;14.57;;;;;;;;;;5085148;28;20024;-86
2021/03/25 10:29:45;;;;;;;27.63;15.48;;;;;;;;;;5091019;28;20020;-85
2021/03/25 10:32:18;;;;;;;24.55;13.98;;;;;;;;;;5096268;28;20020;-85
2021/03/25 10:34:45;;;;;;;27.52;15.60;;;;;;;;;;5088241;28;20048;-85
2021/03/25 10:37:11;;;;;;;25.92;14.10;;;;;;;;;;5084138;28;20044;-86
2021/03/25 10:39:38;;;;;;;23.58;14.63;;;;;;;;;;5088997;28;20052;-85
2021/03/25 10:42:19;;;;;;;27.02;14.95;;;;;;;;;;5086728;28;20431;-85
2021/03/25 10:44:45;;;;;;;23.35;14.02;;;;;;;;;;5092870;28;20066;-86
2021/03/25 10:47:19;;;;;;;23.80;13.75;;;;;;;;;;5094865;28;20464;-82
2021/03/25 10:49:48;;;;;;;22.63;13.38;;;;;;;;;;5095448;28;20018;-82
2021/03/25 10:52:25;;;;;;;28.05;14.43;;;;;;;;;;5098866;28;20035;-82
2021/03/25 10:54:52;;;;;;;24.73;12.02;;;;;;;;;;5094388;28;20020;-82
2021/03/25 10:57:20;;;;;;;26.25;13.02;;;;;;;;;;5086928;28;20016;-82
2021/03/25 11:00:00;;;;;;;25.67;13.57;;;;;;;;;;5093112;28;20024;-82
2021/03/25 11:02:27;;;;;;;23.33;12.95;;;;;;;;;;5089420;28;20031;-82
2021/03/25 11:05:01;;;;;;;22.13;11.88;;;;;;;;;;5090951;28;20107;-82
2021/03/25 11:07:27;;;;;;;19.10;11.27;;;;;;;;;;5092242;28;20107;-82
2021/03/25 11:10:00;;;;;;;25.92;12.02;;;;;;;;;;5086790;28;20027;-83
2021/03/25 11:12:28;;;;;;;21.67;12.15;;;;;;;;;;5091702;28;20035;-82
2021/03/25 11:14:58;;;;;;;19.35;12.07;;;;;;;;;;5087644;28;20016;-83
2021/03/25 11:17:26;;;;;;;22.23;12.45;;;;;;;;;;5084757;28;20024;-83
2021/03/25 11:19:54;;;;;;;22.25;12.00;;;;;;;;;;5099155;28;20024;-83
2021/03/25 11:22:20;;;;;;;17.88;11.88;;;;;;;;;;5087267;28;20035;-83
2021/03/25 11:24:46;;;;;;;20.20;10.68;;;;;;;;;;5091783;28;20024;-82
2021/03/25 11:27:17;;;;;;;17.23;10.63;;;;;;;;;;5086054;28;20023;-82
2021/03/25 11:29:44;;;;;;;20.23;10.65;;;;;;;;;;5092718;28;20024;-83
2021/03/25 11:32:19;;;;;;;18.00;10.38;;;;;;;;;;5075288;28;20778;-83
2021/03/25 11:34:46;;;;;;;22.95;11.60;;;;;;;;;;5075051;28;20035;-83
2021/03/25 11:37:15;;;;;;;18.90;10.80;;;;;;;;;;5072828;28;20051;-82
2021/03/25 11:39:56;;;;;;;15.27;9.27;;;;;;;;;;5073567;28;20028;-83
2021/03/25 11:42:22;;;;;;;18.92;10.05;;;;;;;;;;5074529;28;20024;-83
2021/03/25 11:44:48;;;;;;;16.80;10.50;;;;;;;;;;5075271;28;20077;-83
2021/03/25 11:47:32;;;;;;;15.50;9.50;;;;;;;;;;5081471;28;20032;-83
2021/03/25 11:49:58;;;;;;;14.90;9.68;;;;;;;;;;5080901;28;20045;-83
2021/03/25 11:52:24;;;;;;;16.02;9.77;;;;;;;;;;5089379;28;20017;-83
2021/03/25 11:54:58;;;;;;;21.00;10.80;;;;;;;;;;5084821;28;20024;-83
2021/03/25 11:57:26;;;;;;;21.85;11.18;;;;;;;;;;5064629;28;20477;-83
2021/03/25 12:00:06;;;;;;;16.30;10.25;;;;;;;;;;5075564;28;20125;-83
2021/03/25 12:02:33;;;;;;;16.83;9.30;;;;;;;;;;5087092;22;20052;-78
2021/03/25 12:05:18;;;;;;;23.75;11.35;;;;;;;;;;5070197;28;20043;-78
2021/03/25 12:07:44;;;;;;;21.88;10.65;;;;;;;;;;5068877;28;20056;-78
2021/03/25 12:10:09;;;;;;;16.02;9.95;;;;;;;;;;5073272;28;20003;-77
2021/03/25 12:12:35;;;;;;;19.58;9.98;;;;;;;;;;5085140;28;20052;-77
2021/03/25 12:15:01;;;;;;;19.33;10.20;;;;;;;;;;5078298;28;20047;-79
2021/03/25 12:17:27;;;;;;;17.40;9.20;;;;;;;;;;5091053;28;20036;-77
2021/03/25 12:19:52;;;;;;;14.77;7.75;;;;;;;;;;5075305;28;20077;-79
2021/03/25 12:22:29;;;;;;;14.35;8.35;;;;;;;;;;5089868;28;20028;-76
2021/03/25 12:24:55;;;;;;;14.52;8.18;;;;;;;;;;5084921;28;20016;-77
2021/03/25 12:27:22;;;;;;;15.63;8.27;;;;;;;;;;5087991;28;20035;-76
2021/03/25 12:29:52;;;;;;;18.67;7.93;;;;;;;;;;5089980;28;20032;-78
2021/03/25 12:32:21;;;;;;;15.75;8.35;;;;;;;;;;5092068;28;20027;-79
2021/03/25 12:34:47;;;;;;;14.85;7.93;;;;;;;;;;5092342;28;20395;-79
2021/03/25 12:37:12;;;;;;;16.67;9.55;;;;;;;;;;5090916;28;20035;-78
2021/03/25 12:39:38;;;;;;;16.10;8.77;;;;;;;;;;5091115;28;20034;-80
2021/03/25 12:42:04;;;;;;;16.08;8.52;;;;;;;;;;5075785;28;20027;-79
2021/03/25 12:44:29;;;;;;;12.90;8.35;;;;;;;;;;5091635;28;20103;-79
2021/03/25 12:46:55;;;;;;;13.07;7.43;;;;;;;;;;5073704;28;20043;-79
2021/03/25 12:49:21;;;;;;;11.48;7.10;;;;;;;;;;5092093;28;20119;-81
2021/03/25 12:51:47;;;;;;;11.65;6.72;;;;;;;;;;5089835;28;20028;-80
2021/03/25 12:54:12;;;;;;;14.60;7.20;;;;;;;;;;5091678;28;20038;-81
2021/03/25 12:56:39;;;;;;;12.98;6.75;;;;;;;;;;5087745;28;20119;-80
2021/03/25 12:59:08;;;;;;;12.25;6.40;;;;;;;;;;5090586;28;20028;-79
2021/03/25 13:01:34;;;;;;;11.48;6.47;;;;;;;;;;5091574;28;20055;-80
2021/03/25 13:04:00;;;;;;;11.20;5.93;;;;;;;;;;5091417;28;20043;-79
2021/03/25 13:06:26;;;;;;;12.88;6.10;;;;;;;;;;5086108;28;20395;-78
2021/03/25 13:08:52;;;;;;;11.38;6.25;;;;;;;;;;5089472;28;20083;-81
2021/03/25 13:11:20;;;;;;;11.98;5.72;;;;;;;;;;5094901;28;20027;-81
2021/03/25 13:13:46;;;;;;;10.43;5.90;;;;;;;;;;5093019;28;20054;-78
2021/03/25 13:16:13;;;;;;;15.15;7.10;;;;;;;;;;5095669;28;20057;-80
2021/03/25 13:18:38;;;;;;;12.15;7.65;;;;;;;;;;5096612;28;20074;-78
2021/03/25 13:21:05;;;;;;;16.20;7.65;;;;;;;;;;5096384;28;20347;-79
2021/03/25 13:23:31;;;;;;;12.55;6.85;;;;;;;;;;5094530;28;20106;-78
2021/03/25 13:25:57;;;;;;;11.75;6.85;;;;;;;;;;5091411;28;20011;-76
2021/03/25 13:28:23;;;;;;;11.20;6.72;;;;;;;;;;5092324;28;20028;-78
2021/03/25 13:30:49;;;;;;;13.07;6.18;;;;;;;;;;5092146;28;20034;-78
2021/03/25 13:33:15;;;;;;;11.13;6.32;;;;;;;;;;5070193;28;20024;-80
2021/03/25 13:35:42;;;;;;;11.75;6.75;;;;;;;;;;5070572;28;20470;-78
2021/03/25 13:38:08;;;;;;;14.73;7.22;;;;;;;;;;5091006;28;20020;-79
2021/03/25 13:40:35;;;;;;;11.07;7.13;;;;;;;;;;5091971;28;20529;-77
2021/03/25 13:43:04;;;;;;;16.70;7.40;;;;;;;;;;5092099;28;20036;-79
2021/03/25 13:45:30;;;;;;;13.88;7.80;;;;;;;;;;5089836;28;20078;-79
2021/03/25 13:47:56;;;;;;;12.75;8.02;;;;;;;;;;5074795;28;20043;-78
2021/03/25 13:50:27;;;;;;;15.95;8.35;;;;;;;;;;5090749;28;20383;-77
2021/03/25 13:52:53;;;;;;;14.40;7.88;;;;;;;;;;5089620;28;20095;-77
2021/03/25 13:55:27;;;;;;;12.75;8.07;;;;;;;;;;5091371;28;20020;-78
2021/03/25 13:57:53;;;;;;;16.13;8.18;;;;;;;;;;5091982;28;20493;-78
2021/03/25 14:00:20;;;;;;;17.50;8.82;;;;;;;;;;5088160;28;20032;-79
2021/03/25 14:02:46;;;;;;;16.80;8.38;;;;;;;;;;5072723;28;20024;-78
2021/03/25 14:05:13;;;;;;;11.65;7.60;;;;;;;;;;5078885;28;20069;-79
2021/03/25 14:07:39;;;;;;;12.55;7.03;;;;;;;;;;5094405;28;20491;-76
2021/03/25 14:10:05;;;;;;;16.80;7.80;;;;;;;;;;5091619;28;20027;-80
2021/03/25 14:12:30;;;;;;;10.32;6.85;;;;;;;;;;5071364;28;20073;-80
2021/03/25 14:14:56;;;;;;;13.30;7.22;;;;;;;;;;5093823;28;20067;-81
2021/03/25 14:17:21;;;;;;;14.20;8.63;;;;;;;;;;5093799;28;20499;-79
2021/03/25 14:19:47;;;;;;;20.75;8.82;;;;;;;;;;5095620;28;20099;-79
2021/03/25 14:22:13;;;;;;;14.15;7.70;;;;;;;;;;5092931;28;20095;-80
2021/03/25 14:24:39;;;;;;;19.80;8.57;;;;;;;;;;5093285;28;20076;-80
2021/03/25 14:27:05;;;;;;;13.68;7.68;;;;;;;;;;5073333;28;20403;-79
2021/03/25 14:29:31;;;;;;;15.57;7.70;;;;;;;;;;5093461;28;20073;-79
2021/03/25 14:31:57;;;;;;;10.70;7.07;;;;;;;;;;5090962;28;20468;-80
2021/03/25 14:34:22;;;;;;;16.63;8.63;;;;;;;;;;5093895;28;20036;-81
2021/03/25 14:36:48;;;;;;;13.93;7.97;;;;;;;;;;5094182;28;20016;-80
2021/03/25 14:39:14;;;;;;;18.20;8.85;;;;;;;;;;5092544;28;20032;-79
2021/03/25 14:41:40;;;;;;;14.20;7.20;;;;;;;;;;5093239;28;20099;-80
2021/03/25 14:44:06;;;;;;;19.08;7.45;;;;;;;;;;5095284;28;20081;-79
2021/03/25 14:46:31;;;;;;;15.23;8.05;;;;;;;;;;5076950;28;20093;-78
2021/03/25 14:48:57;;;;;;;15.15;7.88;;;;;;;;;;5068475;28;20026;-80
2021/03/25 14:51:23;;;;;;;13.10;7.43;;;;;;;;;;5091443;28;20435;-78
2021/03/25 14:53:49;;;;;;;15.07;7.80;;;;;;;;;;5091563;28;20050;-77
2021/03/25 14:56:14;;;;;;;13.40;8.32;;;;;;;;;;5094166;28;20020;-78
2021/03/25 14:58:40;;;;;;;11.77;7.10;;;;;;;;;;5076879;28;20028;-79
2021/03/25 15:01:06;;;;;;;12.63;7.75;;;;;;;;;;5085121;28;20023;-79
2021/03/25 15:03:32;;;;;;;12.35;6.78;;;;;;;;;;5082817;28;20388;-81
2021/03/25 15:05:58;;;;;;;13.43;7.80;;;;;;;;;;5086224;28;20098;-80
2021/03/25 15:08:25;;;;;;;15.00;7.47;;;;;;;;;;5084949;28;20028;-80
2021/03/25 15:10:52;;;;;;;13.07;7.45;;;;;;;;;;5100634;28;20027;-79
2021/03/25 15:13:18;;;;;;;16.08;7.53;;;;;;;;;;5095648;28;20027;-80
2021/03/25 15:15:44;;;;;;;15.88;8.73;;;;;;;;;;5085351;28;20016;-80
2021/03/25 15:18:10;;;;;;;16.42;8.48;;;;;;;;;;5077156;28;20059;-79
2021/03/25 15:20:37;;;;;;;14.70;7.90;;;;;;;;;;5080173;28;20020;-79
2021/03/25 15:25:23;;;;;;;13.07;7.20;;;;;;;;;;5077753;28;20396;-81
2021/03/25 15:27:49;;;;;;;14.43;8.00;;;;;;;;;;5093194;28;20037;-80
2021/03/25 15:30:17;;;;;;;12.52;7.90;;;;;;;;;;5084336;28;20027;-81
2021/03/25 15:32:43;;;;;;;15.45;8.32;;;;;;;;;;5073536;28;20031;-81
2021/03/25 15:35:09;;;;;;;15.45;7.82;;;;;;;;;;5087899;28;20025;-80
2021/03/25 15:37:35;;;;;;;15.52;7.50;;;;;;;;;;5087444;28;20043;-81
2021/03/25 15:40:02;;;;;;;14.50;8.13;;;;;;;;;;5087753;28;20017;-81
2021/03/25 15:42:28;;;;;;;12.98;7.18;;;;;;;;;;5085486;28;20033;-79
2021/03/25 15:44:53;;;;;;;13.13;8.20;;;;;;;;;;5091253;28;20112;-82
2021/03/25 15:47:20;;;;;;;12.25;7.07;;;;;;;;;;5086196;28;20064;-81
2021/03/25 15:49:51;;;;;;;12.25;7.43;;;;;;;;;;5081252;28;20107;-82
2021/03/25 15:52:16;;;;;;;12.20;7.65;;;;;;;;;;5081735;28;20028;-82
2021/03/25 15:54:42;;;;;;;11.95;6.55;;;;;;;;;;5081546;28;20448;-80
2021/03/25 15:57:08;;;;;;;13.05;7.03;;;;;;;;;;5085945;28;20023;-80
2021/03/25 15:59:34;;;;;;;13.07;6.95;;;;;;;;;;5079534;28;20094;-81
2021/03/25 16:01:59;;;;;;;12.95;7.97;;;;;;;;;;5089700;28;20023;-81
2021/03/25 16:04:25;;;;;;;12.82;8.32;;;;;;;;;;5080201;28;20352;-81
2021/03/25 16:06:51;;;;;;;9.68;6.35;;;;;;;;;;5085907;28;20020;-80
2021/03/25 16:09:17;;;;;;;15.02;6.40;;;;;;;;;;5074922;28;20028;-82
2021/03/25 16:11:43;;;;;;;11.23;6.78;;;;;;;;;;5089290;28;20074;-80
2021/03/25 16:14:12;;;;;;;11.10;6.30;;;;;;;;;;5087423;28;20099;-79
2021/03/25 16:16:38;;;;;;;12.25;6.60;;;;;;;;;;5080486;28;20099;-81
2021/03/25 16:19:03;;;;;;;10.18;6.68;;;;;;;;;;5082966;28;20035;-81
2021/03/25 16:21:29;;;;;;;10.68;5.93;;;;;;;;;;5084949;28;20115;-79
2021/03/25 16:23:55;;;;;;;12.18;6.07;;;;;;;;;;5081878;28;20074;-81
2021/03/25 16:26:24;;;;;;;10.95;6.40;;;;;;;;;;5084711;28;20107;-80
2021/03/25 16:28:50;;;;;;;10.43;7.03;;;;;;;;;;5083133;28;20024;-81
2021/03/25 16:31:16;;;;;;;10.85;5.22;;;;;;;;;;5083724;28;20528;-82
2021/03/25 16:33:42;;;;;;;9.57;5.80;;;;;;;;;;5080988;28;20042;-80
2021/03/25 16:36:08;;;;;;;12.00;8.45;;;;;;;;;;5077942;28;20043;-80
2021/03/25 16:38:34;;;;;;;8.85;6.25;;;;;;;;;;5073236;28;20116;-79
2021/03/25 16:41:00;;;;;;;11.52;5.95;;;;;;;;;;5072689;28;20048;-80
2021/03/25 16:43:28;;;;;;;9.75;5.80;;;;;;;;;;5056140;28;20028;-82
2021/03/25 16:45:55;;;;;;;10.52;6.70;;;;;;;;;;5065118;28;20488;-83
2021/03/25 16:48:21;;;;;;;10.50;5.32;;;;;;;;;;5066778;28;20025;-84
2021/03/25 16:50:47;;;;;;;9.48;6.18;;;;;;;;;;5071490;28;20175;-84
2021/03/25 16:53:13;;;;;;;9.02;5.38;;;;;;;;;;5067095;28;20126;-84
2021/03/25 16:55:40;;;;;;;10.98;5.15;;;;;;;;;;5063793;28;20100;-84
2021/03/25 16:58:06;;;;;;;6.75;4.22;;;;;;;;;;5058332;28;20449;-84
2021/03/25 17:00:33;;;;;;;10.75;5.40;;;;;;;;;;5046943;28;20482;-79
2021/03/25 17:03:04;;;;;;;10.15;5.15;;;;;;;;;;5045343;28;20102;-83
2021/03/25 17:05:30;;;;;;;;;;;;;;;;;;5043816;28;20025;-81
2021/03/25 17:07:57;;;;;;;9.70;5.50;;;;;;;;;;5051721;28;19921;-84
2021/03/25 17:10:25;;;;;;;10.43;8.38;;;;;;;;;;5051540;28;20021;-84
2021/03/25 17:12:51;;;;;;;22.23;17.50;;;;;;;;;;5048201;28;20066;-83
2021/03/25 17:15:18;;;;;;;22.70;17.35;;;;;;;;;;5042711;28;20079;-82
2021/03/25 17:17:43;;;;;;;15.48;10.77;;;;;;;;;;5046201;28;20120;-81
2021/03/25 17:20:10;;;;;;;14.35;9.30;;;;;;;;;;5039921;28;20029;-83
2021/03/25 17:22:35;;;;;;;15.32;11.52;;;;;;;;;;5044861;28;20447;-80
2021/03/25 17:25:01;;;;;;;26.83;18.35;;;;;;;;;;5043472;28;20025;-83
2021/03/25 17:27:27;;;;;;;37.17;25.77;;;;;;;;;;5045208;28;20099;-81
2021/03/25 17:29:53;;;;;;;12.57;8.20;;;;;;;;;;5043784;28;20020;-82
2021/03/25 17:32:19;;;;;;;8.93;4.80;;;;;;;;;;5060328;28;20477;-82
2021/03/25 17:34:44;;;;;;;7.80;4.78;;;;;;;;;;5045750;28;20032;-83
2021/03/25 17:37:10;;;;;;;6.53;4.25;;;;;;;;;;5056458;28;20033;-82
2021/03/25 17:39:36;;;;;;;7.05;4.30;;;;;;;;;;5055826;28;20049;-80
2021/03/25 17:42:02;;;;;;;10.10;6.45;;;;;;;;;;5039378;28;20450;-80
2021/03/25 17:44:28;;;;;;;17.67;9.20;;;;;;;;;;5041045;28;20032;-81
2021/03/25 17:46:54;;;;;;;41.47;23.90;;;;;;;;;;5046832;28;20659;-83
2021/03/25 17:49:19;;;;;;;25.30;17.95;;;;;;;;;;5044334;28;20037;-82
2021/03/25 17:51:45;;;;;;;17.45;8.57;;;;;;;;;;5045106;28;20460;-82
2021/03/25 17:54:11;;;;;;;22.13;13.85;;;;;;;;;;5042302;28;19923;-81
2021/03/25 17:56:40;;;;;;;16.15;13.27;;;;;;;;;;5047230;28;20029;-82
2021/03/25 17:59:06;;;;;;;13.55;9.65;;;;;;;;;;5043310;28;20666;-83
2021/03/25 18:01:32;;;;;;;12.82;8.30;;;;;;;;;;5046773;28;20023;-82
2021/03/25 18:03:58;;;;;;;10.70;7.78;;;;;;;;;;5041274;28;20883;-81
2021/03/25 18:06:23;;;;;;;14.30;8.20;;;;;;;;;;5043512;28;20036;-83
2021/03/25 18:08:49;;;;;;;14.15;9.27;;;;;;;;;;5052449;22;20136;-78
2021/03/25 18:11:15;;;;;;;12.95;6.80;;;;;;;;;;5045491;28;20468;-80
2021/03/25 18:13:41;;;;;;;11.43;7.10;;;;;;;;;;5026072;28;20021;-80
2021/03/25 18:16:09;;;;;;;8.70;6.55;;;;;;;;;;5035837;28;20466;-80
2021/03/25 18:18:36;;;;;;;10.90;6.22;;;;;;;;;;5029853;28;20034;-79
2021/03/25 18:21:04;;;;;;;8.80;5.30;;;;;;;;;;5026503;28;20018;-79
2021/03/25 18:23:30;;;;;;;10.02;5.78;;;;;;;;;;5028013;28;20025;-79
2021/03/25 18:25:56;;;;;;;8.52;4.97;;;;;;;;;;5021029;28;21496;-79
2021/03/25 18:28:22;;;;;;;7.68;3.97;;;;;;;;;;5022989;28;20034;-79
2021/03/25 18:30:49;;;;;;;5.50;3.38;;;;;;;;;;5023616;28;20151;-78
2021/03/25 18:33:16;;;;;;;5.55;3.33;;;;;;;;;;5031918;28;20087;-79
2021/03/25 18:35:43;;;;;;;6.10;3.95;;;;;;;;;;5033559;28;20021;-80
2021/03/25 18:38:09;;;;;;;6.70;3.47;;;;;;;;;;5035000;28;20090;-82
2021/03/25 18:40:35;;;;;;;7.28;3.53;;;;;;;;;;5041944;28;20087;-82
2021/03/25 18:43:01;;;;;;;6.32;3.63;;;;;;;;;;5032889;28;20057;-82
2021/03/25 18:45:29;;;;;;;7.97;3.65;;;;;;;;;;5031061;28;20096;-82
2021/03/25 18:47:55;;;;;;;10.70;2.75;;;;;;;;;;5033521;28;20753;-82
2021/03/25 18:50:21;;;;;;;6.47;3.10;;;;;;;;;;5031469;28;20029;-82
2021/03/25 18:52:47;;;;;;;5.55;2.97;;;;;;;;;;5032588;28;20060;-82
2021/03/25 18:57:31;;;;;;;5.30;2.72;;;;;;;;;;5092538;27;20774;-82
2021/03/25 18:59:56;;;;;;;7.55;3.53;;;;;;;;;;5075141;28;20032;-82
2021/03/25 19:02:22;;;;;;;7.90;2.97;;;;;;;;;;5070667;28;20029;-82
2021/03/25 19:04:48;;;;;;;4.85;2.40;;;;;;;;;;5072745;28;20025;-82
2021/03/25 19:07:14;;;;;;;8.38;3.55;;;;;;;;;;5072584;28;20035;-81
2021/03/25 19:11:58;;;;;;;6.43;3.17;;;;;;;;;;5092825;27;20372;-82
2021/03/25 19:14:24;;;;;;;4.75;2.72;;;;;;;;;;5075774;28;20036;-82
2021/03/25 19:16:50;;;;;;;8.13;3.00;;;;;;;;;;5060341;28;20127;-82
2021/03/25 19:19:16;;;;;;;5.72;2.65;;;;;;;;;;5067433;28;20033;-82
2021/03/25 19:21:42;;;;;;;5.70;2.53;;;;;;;;;;5050074;28;20049;-82
2021/03/25 19:24:08;;;;;;;4.95;2.72;;;;;;;;;;5055688;28;20032;-82
2021/03/25 19:26:34;;;;;;;5.75;2.25;;;;;;;;;;5059173;28;20025;-82
2021/03/25 19:31:17;;;;;;;7.95;2.80;;;;;;;;;;5087460;28;20356;-79
2021/03/25 19:33:44;;;;;;;5.78;2.67;;;;;;;;;;5091482;28;21217;-79
2021/03/25 19:36:10;;;;;;;6.22;2.92;;;;;;;;;;5067749;28;20025;-82
2021/03/25 19:38:36;;;;;;;5.03;2.80;;;;;;;;;;5085113;28;20081;-82
2021/03/25 19:41:04;;;;;;;4.53;2.50;;;;;;;;;;5084740;28;20020;-82
2021/03/25 19:43:32;;;;;;;4.75;2.60;;;;;;;;;;5085505;28;20017;-82
2021/03/25 19:45:58;;;;;;;10.98;3.50;;;;;;;;;;5086550;28;20020;-81
2021/03/25 19:48:24;;;;;;;6.32;3.20;;;;;;;;;;5083700;28;20047;-81
2021/03/25 19:50:50;;;;;;;8.02;3.38;;;;;;;;;;5083985;28;20021;-81
2021/03/25 19:53:16;;;;;;;6.32;3.00;;;;;;;;;;5080314;28;20035;-82
2021/03/25 19:55:41;;;;;;;10.70;3.00;;;;;;;;;;5084898;28;20107;-81
2021/03/25 19:58:07;;;;;;;4.95;2.35;;;;;;;;;;5067326;28;20028;-82
2021/03/25 20:00:33;;;;;;;13.10;3.65;;;;;;;;;;5065866;28;20044;-81
2021/03/25 20:02:59;;;;;;;6.72;3.08;;;;;;;;;;5082394;28;20055;-82
2021/03/25 20:05:33;;;;;;;4.97;2.67;;;;;;;;;;5063380;28;20024;-82
2021/03/25 20:07:59;;;;;;;6.75;2.95;;;;;;;;;;5068349;28;20025;-82
2021/03/25 20:10:25;;;;;;;4.10;2.70;;;;;;;;;;5063401;28;20491;-82
2021/03/25 20:12:51;;;;;;;9.95;3.38;;;;;;;;;;5088534;28;20105;-82
2021/03/25 20:15:39;;;;;;;8.75;3.15;;;;;;;;;;5075655;28;20040;-81
2021/03/25 20:18:06;;;;;;;6.25;3.10;;;;;;;;;;5094966;28;20016;-82
2021/03/25 20:20:32;;;;;;;5.55;2.92;;;;;;;;;;5089409;28;20020;-81
2021/03/25 20:22:58;;;;;;;7.25;2.80;;;;;;;;;;5097658;28;20124;-82
2021/03/25 20:25:24;;;;;;;5.57;3.03;;;;;;;;;;5081043;28;20028;-81
2021/03/25 20:27:50;;;;;;;4.47;2.70;;;;;;;;;;5090453;28;20541;-80
2021/03/25 20:30:19;;;;;;;6.93;3.20;;;;;;;;;;5079156;28;20024;-82
2021/03/25 20:32:45;;;;;;;4.85;3.13;;;;;;;;;;5105856;28;20036;-81
2021/03/25 20:35:11;;;;;;;5.00;2.97;;;;;;;;;;5100370;28;20029;-81
2021/03/25 20:37:37;;;;;;;6.97;3.65;;;;;;;;;;5078289;28;20043;-81
2021/03/25 20:40:06;;;;;;;8.30;3.08;;;;;;;;;;5095777;28;20107;-82
2021/03/25 20:42:32;;;;;;;6.28;3.60;;;;;;;;;;5076827;28;20054;-81
2021/03/25 20:44:58;;;;;;;7.20;2.75;;;;;;;;;;5074763;28;20024;-82